Time;durP1;ratioP1;P1;durP2;ratioP2;P2;SDS_P1;SDS_P2;PMS_P1;PMS_P2;Temp;Humidity;BMP_temperature;BMP_pressure;BME280_temperature;BME280_humidity;BME280_pressure;Samples;Min_cycle;Max_cycle;Signal;HPM_P1;HPM_P2
2022/02/22 00:01:42;;;;;;;0.10;0.10;;;6.20;99.90;;;;;;5024781;28;20177;-84
2022/02/22 00:04:08;;;;;;;0.10;0.10;;;6.00;99.90;;;;;;5021281;28;20204;-83
2022/02/22 00:06:34;;;;;;;0.10;0.10;;;5.90;99.90;;;;;;5027707;28;20221;-84
2022/02/22 00:09:00;;;;;;;0.30;0.10;;;5.80;99.90;;;;;;5026271;28;20218;-84
2022/02/22 00:11:26;;;;;;;0.10;0.10;;;5.80;99.90;;;;;;5022987;28;20188;-84
2022/02/22 00:13:52;;;;;;;0.20;0.20;;;5.80;99.90;;;;;;5023158;28;20601;-84
2022/02/22 00:16:19;;;;;;;0.37;0.30;;;5.80;99.90;;;;;;5028169;28;20194;-83
2022/02/22 00:18:44;;;;;;;1.03;0.43;;;5.70;99.90;;;;;;5028404;28;20197;-84
2022/02/22 00:21:12;;;;;;;0.00;0.00;;;5.70;99.90;;;;;;5025797;28;20197;-84
2022/02/22 00:23:38;;;;;;;1.13;1.13;;;5.60;99.90;;;;;;5025853;28;20217;-84
2022/02/22 00:26:04;;;;;;;0.40;0.40;;;5.70;99.90;;;;;;5026347;28;20191;-84
2022/02/22 00:28:29;;;;;;;0.00;0.00;;;5.60;99.90;;;;;;5026307;28;20586;-84
2022/02/22 00:30:55;;;;;;;0.40;0.40;;;5.60;99.90;;;;;;5027591;28;20214;-84
2022/02/22 00:33:20;;;;;;;0.83;0.37;;;5.60;99.90;;;;;;5023101;28;20187;-83
2022/02/22 00:35:46;;;;;;;0.50;0.50;;;5.70;99.90;;;;;;5023118;28;20182;-83
2022/02/22 00:38:12;;;;;;;0.50;0.50;;;5.70;99.90;;;;;;5026134;28;20202;-83
2022/02/22 00:40:38;;;;;;;1.17;1.10;;;5.70;99.90;;;;;;5026187;28;20277;-84
2022/02/22 00:43:03;;;;;;;0.53;0.50;;;5.80;99.90;;;;;;5021955;28;20186;-84
2022/02/22 00:45:29;;;;;;;0.87;0.87;;;5.90;99.90;;;;;;5023885;28;20281;-83
2022/02/22 00:47:54;;;;;;;0.57;0.57;;;5.90;99.90;;;;;;5027878;28;20586;-84
2022/02/22 00:50:20;;;;;;;0.50;0.40;;;5.90;99.90;;;;;;5022865;28;20210;-84
2022/02/22 00:52:46;;;;;;;0.17;0.17;;;5.80;99.90;;;;;;5021108;28;20648;-84
2022/02/22 00:55:11;;;;;;;0.10;0.10;;;5.80;99.90;;;;;;5024218;28;20606;-84
2022/02/22 00:57:37;;;;;;;0.00;0.00;;;5.80;99.90;;;;;;5024684;28;20855;-84
2022/02/22 01:00:06;;;;;;;0.10;0.10;;;5.80;99.90;;;;;;5019667;28;20209;-84
2022/02/22 01:02:32;;;;;;;0.10;0.10;;;5.90;99.90;;;;;;5024586;28;20195;-84
2022/02/22 01:04:57;;;;;;;0.47;0.10;;;5.90;99.90;;;;;;5021997;28;20210;-84
2022/02/22 01:07:23;;;;;;;1.27;0.43;;;5.90;99.90;;;;;;5021161;28;20207;-84
2022/02/22 01:09:49;;;;;;;1.10;0.57;;;5.90;99.90;;;;;;5022557;28;20218;-84
2022/02/22 01:12:16;;;;;;;0.10;0.10;;;6.00;99.90;;;;;;5024845;28;20206;-83
2022/02/22 01:14:43;;;;;;;0.27;0.27;;;6.00;99.90;;;;;;5025875;28;20182;-84
2022/02/22 01:17:09;;;;;;;0.20;0.20;;;6.00;99.90;;;;;;5021331;28;20230;-84
2022/02/22 01:19:35;;;;;;;0.40;0.40;;;6.00;99.90;;;;;;5023886;28;20196;-83
2022/02/22 01:22:01;;;;;;;0.20;0.20;;;6.00;99.90;;;;;;5024506;28;20662;-84
2022/02/22 01:24:27;;;;;;;0.10;0.10;;;6.10;99.90;;;;;;5021348;28;20191;-84
2022/02/22 01:26:52;;;;;;;0.87;0.63;;;6.10;99.90;;;;;;5021384;28;20306;-83
2022/02/22 01:29:19;;;;;;;5.20;0.27;;;6.20;99.90;;;;;;5024474;28;20222;-84
2022/02/22 01:31:45;;;;;;;0.13;0.13;;;6.20;99.90;;;;;;5023857;28;20188;-84
2022/02/22 01:34:10;;;;;;;0.37;0.37;;;6.10;99.90;;;;;;5023542;28;20651;-84
2022/02/22 01:36:36;;;;;;;0.00;0.00;;;6.10;99.90;;;;;;5025654;28;20588;-84
2022/02/22 01:39:04;;;;;;;0.20;0.20;;;6.10;99.90;;;;;;5025080;28;20182;-84
2022/02/22 01:41:32;;;;;;;1.33;1.23;;;6.20;99.90;;;;;;5024686;28;20183;-84
2022/02/22 01:43:58;;;;;;;6.63;0.93;;;6.20;99.90;;;;;;5027087;28;20178;-84
2022/02/22 01:46:23;;;;;;;0.20;0.20;;;6.10;99.90;;;;;;5024077;28;20715;-84
2022/02/22 01:48:49;;;;;;;1.47;1.37;;;6.20;99.90;;;;;;5023435;28;20205;-83
2022/02/22 01:51:14;;;;;;;0.50;0.50;;;6.20;99.90;;;;;;5022350;28;20190;-84
2022/02/22 01:53:40;;;;;;;0.10;0.10;;;6.20;99.90;;;;;;5026585;28;20222;-84
2022/02/22 01:56:07;;;;;;;0.40;0.40;;;6.30;99.90;;;;;;5023213;28;20248;-84
2022/02/22 01:58:33;;;;;;;0.10;0.10;;;6.40;99.90;;;;;;5025604;28;20187;-84
2022/02/22 02:00:59;;;;;;;0.10;0.10;;;6.30;99.90;;;;;;5025355;28;20186;-84
2022/02/22 02:03:26;;;;;;;0.10;0.10;;;6.30;99.90;;;;;;5024896;28;20201;-84
2022/02/22 02:05:52;;;;;;;1.90;0.47;;;6.30;99.90;;;;;;5025887;28;20285;-83
2022/02/22 02:08:18;;;;;;;3.03;0.53;;;6.30;99.90;;;;;;5020506;28;20218;-85
2022/02/22 02:10:43;;;;;;;0.73;0.73;;;6.30;99.90;;;;;;5022652;28;20212;-83
2022/02/22 02:13:09;;;;;;;0.20;0.20;;;6.20;99.90;;;;;;5026453;28;20190;-84
2022/02/22 02:15:34;;;;;;;0.03;0.03;;;6.20;99.90;;;;;;5021801;28;20217;-84
2022/02/22 02:18:00;;;;;;;6.20;0.30;;;6.20;99.90;;;;;;5024370;28;20576;-84
2022/02/22 02:20:25;;;;;;;1.47;1.43;;;6.30;99.90;;;;;;5019549;28;20213;-84
2022/02/22 02:22:51;;;;;;;0.10;0.10;;;6.30;99.90;;;;;;5020488;28;20665;-83
2022/02/22 02:25:19;;;;;;;1.10;0.93;;;6.30;99.90;;;;;;5024356;28;20198;-84
2022/02/22 02:27:45;;;;;;;0.40;0.40;;;6.30;99.90;;;;;;5024921;28;20207;-84
2022/02/22 02:30:11;;;;;;;0.20;0.20;;;6.30;99.90;;;;;;5022704;28;20674;-84
2022/02/22 02:32:37;;;;;;;0.93;0.87;;;6.30;99.90;;;;;;5018097;28;20178;-84
2022/02/22 02:35:04;;;;;;;0.10;0.10;;;6.20;99.90;;;;;;5023498;28;20240;-84
2022/02/22 02:37:30;;;;;;;0.23;0.23;;;6.20;99.90;;;;;;5024270;28;20202;-84
2022/02/22 02:39:55;;;;;;;0.10;0.10;;;6.10;99.90;;;;;;5020404;28;20244;-84
2022/02/22 02:42:21;;;;;;;0.33;0.33;;;6.10;99.90;;;;;;5023547;28;20256;-84
2022/02/22 02:44:47;;;;;;;0.20;0.20;;;6.00;99.90;;;;;;5020117;28;20186;-84
2022/02/22 02:47:14;;;;;;;0.10;0.10;;;6.10;99.90;;;;;;5027772;28;20612;-84
2022/02/22 02:49:41;;;;;;;0.10;0.10;;;6.10;99.90;;;;;;5024749;28;20210;-84
2022/02/22 02:52:07;;;;;;;0.20;0.20;;;6.10;99.90;;;;;;5023541;28;20195;-84
2022/02/22 02:54:33;;;;;;;0.23;0.20;;;6.20;99.90;;;;;;5025566;28;20197;-84
2022/02/22 02:56:59;;;;;;;0.33;0.33;;;6.30;99.90;;;;;;5026127;28;20202;-84
2022/02/22 02:59:25;;;;;;;0.67;0.67;;;6.30;99.90;;;;;;5026346;28;20190;-84
2022/02/22 03:01:50;;;;;;;0.30;0.30;;;6.30;99.90;;;;;;5029488;28;20216;-84
2022/02/22 03:04:19;;;;;;;0.93;0.93;;;6.20;99.90;;;;;;5025662;28;20201;-84
2022/02/22 03:06:45;;;;;;;0.10;0.10;;;6.30;99.90;;;;;;5028722;28;20252;-84
2022/02/22 03:09:11;;;;;;;1.90;0.20;;;6.30;99.90;;;;;;5029072;28;20220;-84
2022/02/22 03:11:37;;;;;;;0.10;0.10;;;6.30;99.90;;;;;;5023930;28;20188;-84
2022/02/22 03:14:03;;;;;;;0.20;0.20;;;6.30;99.90;;;;;;5026169;28;20188;-84
2022/02/22 03:16:28;;;;;;;0.10;0.10;;;6.20;99.90;;;;;;5022234;28;20590;-84
2022/02/22 03:18:54;;;;;;;0.43;0.43;;;6.20;99.90;;;;;;5027526;28;20183;-84
2022/02/22 03:21:19;;;;;;;0.10;0.10;;;6.10;99.90;;;;;;5027034;28;20190;-84
2022/02/22 03:23:45;;;;;;;0.27;0.27;;;6.20;99.90;;;;;;5026916;28;20182;-84
2022/02/22 03:26:11;;;;;;;1.60;0.17;;;6.30;99.90;;;;;;5026318;28;20660;-84
2022/02/22 03:28:37;;;;;;;3.53;1.30;;;6.30;99.90;;;;;;5024333;28;20183;-84
2022/02/22 03:31:03;;;;;;;0.10;0.10;;;6.40;99.90;;;;;;5028512;28;20248;-84
2022/02/22 03:33:29;;;;;;;0.10;0.10;;;6.40;99.90;;;;;;5028229;28;20175;-83
2022/02/22 03:35:55;;;;;;;0.63;0.20;;;6.50;99.90;;;;;;5024159;28;20219;-84
2022/02/22 03:38:20;;;;;;;1.33;0.43;;;6.50;99.90;;;;;;5023315;28;20319;-84
2022/02/22 03:40:46;;;;;;;0.10;0.10;;;6.50;99.90;;;;;;5022284;28;20785;-84
2022/02/22 03:43:12;;;;;;;0.53;0.53;;;6.50;99.90;;;;;;5023409;28;20273;-84
2022/02/22 03:45:37;;;;;;;0.17;0.10;;;6.50;99.90;;;;;;5026566;28;20559;-84
2022/02/22 03:48:03;;;;;;;0.10;0.10;;;6.50;99.90;;;;;;5026833;28;20215;-83
2022/02/22 03:50:29;;;;;;;0.00;0.00;;;6.60;99.90;;;;;;5025731;28;20206;-84
2022/02/22 03:52:54;;;;;;;0.20;0.20;;;6.50;99.90;;;;;;5025204;28;20180;-84
2022/02/22 03:55:22;;;;;;;0.33;0.33;;;6.50;99.90;;;;;;5026794;28;20182;-84
2022/02/22 03:57:47;;;;;;;0.67;0.27;;;6.50;99.90;;;;;;5025280;28;20215;-84
2022/02/22 04:00:18;;;;;;;0.10;0.10;;;6.60;99.90;;;;;;5026920;28;20198;-84
2022/02/22 04:02:45;;;;;;;0.40;0.40;;;6.60;99.90;;;;;;5026733;28;20190;-84
2022/02/22 04:05:11;;;;;;;0.10;0.10;;;6.60;99.90;;;;;;5024922;28;20265;-84
2022/02/22 04:07:38;;;;;;;2.53;0.23;;;6.50;99.90;;;;;;5022540;28;20214;-83
2022/02/22 04:10:05;;;;;;;0.63;0.50;;;6.50;99.90;;;;;;5028755;28;20206;-84
2022/02/22 04:12:31;;;;;;;0.10;0.10;;;6.60;99.90;;;;;;5029682;28;20233;-84
2022/02/22 04:14:56;;;;;;;0.10;0.10;;;6.60;99.90;;;;;;5023704;28;20178;-83
2022/02/22 04:17:22;;;;;;;0.10;0.10;;;6.60;99.90;;;;;;5042768;28;20267;-83
2022/02/22 04:19:49;;;;;;;0.40;0.40;;;6.60;99.90;;;;;;5024472;28;20200;-84
2022/02/22 04:22:16;;;;;;;0.10;0.10;;;6.50;99.90;;;;;;5025972;28;20559;-84
2022/02/22 04:24:41;;;;;;;0.77;0.77;;;6.60;99.90;;;;;;5028024;28;20214;-83
2022/02/22 04:27:07;;;;;;;2.63;0.30;;;6.60;99.90;;;;;;5023732;28;20261;-84
2022/02/22 04:29:32;;;;;;;1.03;0.57;;;6.60;99.90;;;;;;5027973;28;20213;-84
2022/02/22 04:32:00;;;;;;;0.10;0.10;;;6.50;99.90;;;;;;5024642;28;20265;-84
2022/02/22 04:34:26;;;;;;;0.10;0.10;;;6.60;99.90;;;;;;5026047;28;20286;-84
2022/02/22 04:36:52;;;;;;;0.00;0.00;;;6.50;99.90;;;;;;5025343;28;20285;-84
2022/02/22 04:39:17;;;;;;;0.30;0.17;;;6.50;99.90;;;;;;5026261;28;20581;-84
2022/02/22 04:41:43;;;;;;;0.10;0.10;;;6.50;99.90;;;;;;5027035;28;20202;-83
2022/02/22 04:44:08;;;;;;;0.00;0.00;;;6.50;99.90;;;;;;5022800;28;20182;-84
2022/02/22 04:46:34;;;;;;;0.17;0.17;;;6.30;99.90;;;;;;5025444;28;20702;-84
2022/02/22 04:48:59;;;;;;;0.20;0.20;;;6.20;99.90;;;;;;5023211;28;20717;-84
2022/02/22 04:51:25;;;;;;;0.07;0.07;;;6.20;99.90;;;;;;5021198;28;20175;-84
2022/02/22 04:53:50;;;;;;;0.10;0.10;;;6.10;99.90;;;;;;5024099;28;20180;-85
2022/02/22 04:56:16;;;;;;;0.10;0.10;;;6.10;99.90;;;;;;5023102;28;20190;-84
2022/02/22 04:58:42;;;;;;;0.20;0.20;;;6.20;99.90;;;;;;5021975;28;20185;-85
2022/02/22 05:01:08;;;;;;;0.33;0.33;;;6.20;99.90;;;;;;5021887;28;20201;-84
2022/02/22 05:03:34;;;;;;;0.77;0.77;;;6.20;99.90;;;;;;5024362;28;20186;-84
2022/02/22 05:05:59;;;;;;;2.00;0.47;;;6.00;99.90;;;;;;5025705;28;20233;-85
2022/02/22 05:08:25;;;;;;;0.20;0.10;;;6.10;99.90;;;;;;5020512;28;20209;-84
2022/02/22 05:10:52;;;;;;;0.20;0.20;;;6.10;99.90;;;;;;5023858;28;20194;-84
2022/02/22 05:13:18;;;;;;;0.40;0.40;;;6.10;99.90;;;;;;5022943;28;20178;-85
2022/02/22 05:15:44;;;;;;;0.00;0.00;;;6.10;99.90;;;;;;5022924;28;20928;-83
2022/02/22 05:18:09;;;;;;;0.03;0.03;;;6.10;99.90;;;;;;5025170;28;20264;-83
2022/02/22 05:20:35;;;;;;;0.60;0.60;;;6.10;99.90;;;;;;5022961;28;20213;-84
2022/02/22 05:23:00;;;;;;;1.20;1.10;;;6.00;99.90;;;;;;5023540;28;20190;-84
2022/02/22 05:25:26;;;;;;;0.43;0.30;;;6.10;99.90;;;;;;5027297;28;20194;-84
2022/02/22 05:27:52;;;;;;;0.30;0.10;;;6.00;99.90;;;;;;5036304;28;20202;-85
2022/02/22 05:30:18;;;;;;;4.80;1.30;;;6.00;99.90;;;;;;5038641;28;20313;-84
2022/02/22 05:32:44;;;;;;;0.00;0.00;;;5.90;99.90;;;;;;5035967;28;20178;-84
2022/02/22 05:35:13;;;;;;;2.37;0.30;;;5.90;99.90;;;;;;5035017;28;20190;-85
2022/02/22 05:37:39;;;;;;;0.03;0.03;;;5.90;99.90;;;;;;5030902;28;20202;-83
2022/02/22 05:40:06;;;;;;;1.03;0.40;;;5.80;99.90;;;;;;5027496;28;20186;-85
2022/02/22 05:42:33;;;;;;;0.00;0.00;;;5.80;99.90;;;;;;5026419;28;20181;-83
2022/02/22 05:44:59;;;;;;;0.00;0.00;;;5.70;99.90;;;;;;5028231;28;20186;-84
2022/02/22 05:47:24;;;;;;;0.10;0.10;;;5.70;99.90;;;;;;5023838;28;20213;-85
2022/02/22 05:49:50;;;;;;;0.00;0.00;;;5.70;99.90;;;;;;5026625;28;20216;-83
2022/02/22 05:52:16;;;;;;;2.80;0.13;;;5.80;99.90;;;;;;5029039;28;20182;-84
2022/02/22 05:54:43;;;;;;;0.10;0.10;;;5.80;99.90;;;;;;5022630;28;20598;-83
2022/02/22 05:57:09;;;;;;;0.73;0.23;;;5.70;99.90;;;;;;5025360;28;20220;-83
2022/02/22 05:59:35;;;;;;;0.10;0.10;;;5.70;99.90;;;;;;5025705;28;20187;-83
2022/02/22 06:02:00;;;;;;;2.73;0.30;;;5.70;99.90;;;;;;5029644;28;20217;-84
2022/02/22 06:04:26;;;;;;;1.17;0.13;;;5.70;99.90;;;;;;5030282;28;20190;-84
2022/02/22 06:06:52;;;;;;;0.60;0.60;;;5.80;99.90;;;;;;5027690;28;20698;-84
2022/02/22 06:09:18;;;;;;;0.13;0.13;;;5.80;99.90;;;;;;5028939;28;20237;-85
2022/02/22 06:11:44;;;;;;;0.40;0.40;;;5.70;99.90;;;;;;5026167;28;20189;-85
2022/02/22 06:14:10;;;;;;;0.10;0.10;;;5.70;99.90;;;;;;5023397;28;20186;-84
2022/02/22 06:16:36;;;;;;;0.10;0.10;;;5.60;99.90;;;;;;5027274;28;20285;-85
2022/02/22 06:19:01;;;;;;;0.00;0.00;;;5.50;99.90;;;;;;5024746;28;20217;-84
2022/02/22 06:21:27;;;;;;;2.53;0.30;;;5.50;99.90;;;;;;5028646;28;20285;-84
2022/02/22 06:23:53;;;;;;;0.50;0.50;;;5.40;99.90;;;;;;5028011;28;20186;-84
2022/02/22 06:26:18;;;;;;;0.10;0.10;;;5.40;99.90;;;;;;5034988;28;20261;-83
2022/02/22 06:28:46;;;;;;;0.40;0.40;;;5.40;99.90;;;;;;5038679;28;20186;-83
2022/02/22 06:31:12;;;;;;;0.40;0.27;;;5.40;99.90;;;;;;5034340;28;20218;-83
2022/02/22 06:33:38;;;;;;;0.20;0.20;;;5.50;99.90;;;;;;5033690;28;20196;-82
2022/02/22 06:36:04;;;;;;;4.40;0.53;;;5.50;99.90;;;;;;5031429;28;20301;-83
2022/02/22 06:38:29;;;;;;;0.63;0.63;;;5.50;99.90;;;;;;5037648;28;20266;-83
2022/02/22 06:40:55;;;;;;;0.10;0.10;;;5.60;99.90;;;;;;5037211;28;20240;-83
2022/02/22 06:43:21;;;;;;;0.10;0.10;;;5.60;99.90;;;;;;5032585;28;20248;-82
2022/02/22 06:45:47;;;;;;;0.10;0.10;;;5.60;99.90;;;;;;5026498;28;20246;-83
2022/02/22 06:48:14;;;;;;;1.03;0.80;;;5.70;99.90;;;;;;5034101;28;20270;-83
2022/02/22 06:50:40;;;;;;;0.10;0.10;;;5.80;99.90;;;;;;5030934;28;20306;-82
2022/02/22 06:53:06;;;;;;;0.10;0.10;;;5.90;99.90;;;;;;5031044;28;20214;-83
2022/02/22 06:55:32;;;;;;;0.17;0.17;;;5.90;99.90;;;;;;5035245;28;20183;-82
2022/02/22 06:58:03;;;;;;;0.20;0.20;;;6.00;99.90;;;;;;5034353;28;20212;-83
2022/02/22 07:00:30;;;;;;;0.10;0.10;;;6.10;99.90;;;;;;5023578;28;20265;-83
2022/02/22 07:02:56;;;;;;;0.20;0.20;;;6.10;99.90;;;;;;5031357;28;20193;-83
2022/02/22 07:05:21;;;;;;;0.10;0.10;;;6.00;99.90;;;;;;5030050;28;20201;-83
2022/02/22 07:07:47;;;;;;;0.73;0.40;;;6.10;99.90;;;;;;5028615;28;20207;-82
2022/02/22 07:10:13;;;;;;;0.10;0.10;;;6.10;99.90;;;;;;5031478;28;20241;-83
2022/02/22 07:12:38;;;;;;;1.07;0.60;;;6.10;99.90;;;;;;5029269;28;20185;-83
2022/02/22 07:15:05;;;;;;;0.30;0.30;;;6.10;99.90;;;;;;5047948;28;20563;-81
2022/02/22 07:17:31;;;;;;;0.40;0.40;;;6.10;99.90;;;;;;5030257;28;20207;-83
2022/02/22 07:19:56;;;;;;;0.13;0.13;;;6.10;99.90;;;;;;5027080;28;20191;-83
2022/02/22 07:22:22;;;;;;;0.10;0.10;;;6.20;99.90;;;;;;5026976;28;20187;-83
2022/02/22 07:24:48;;;;;;;0.10;0.10;;;6.10;99.90;;;;;;5026854;28;20175;-82
2022/02/22 07:27:14;;;;;;;0.27;0.27;;;6.20;99.90;;;;;;5030599;28;20308;-83
2022/02/22 07:29:39;;;;;;;0.60;0.57;;;6.20;99.90;;;;;;5030369;28;20206;-83
2022/02/22 07:32:05;;;;;;;0.10;0.10;;;6.20;99.90;;;;;;5026435;28;20179;-83
2022/02/22 07:34:30;;;;;;;0.10;0.10;;;6.10;99.90;;;;;;5026470;28;20197;-83
2022/02/22 07:36:57;;;;;;;0.00;0.00;;;6.20;99.90;;;;;;5028466;28;20252;-82
2022/02/22 07:39:23;;;;;;;1.20;1.13;;;6.30;99.90;;;;;;5029565;28;20216;-83
2022/02/22 07:41:49;;;;;;;1.17;0.20;;;6.30;99.90;;;;;;5025859;28;20209;-83
2022/02/22 07:44:15;;;;;;;0.20;0.20;;;6.40;99.90;;;;;;5043318;28;20193;-83
2022/02/22 07:46:40;;;;;;;0.20;0.20;;;6.50;99.90;;;;;;5026642;28;20206;-83
2022/02/22 07:49:06;;;;;;;0.17;0.17;;;6.70;99.90;;;;;;5022557;28;20191;-83
2022/02/22 07:51:32;;;;;;;0.10;0.10;;;6.80;99.90;;;;;;5027925;28;20754;-82
2022/02/22 07:53:57;;;;;;;0.10;0.10;;;6.80;99.90;;;;;;5026213;28;20240;-83
2022/02/22 07:56:23;;;;;;;0.20;0.20;;;6.90;99.90;;;;;;5026895;28;20182;-83
2022/02/22 07:58:49;;;;;;;0.10;0.10;;;7.00;99.90;;;;;;5025542;28;20179;-83
2022/02/22 08:01:14;;;;;;;0.30;0.30;;;7.20;99.90;;;;;;5025527;28;20195;-83
2022/02/22 08:03:44;;;;;;;0.10;0.10;;;7.50;99.90;;;;;;5022208;28;20722;-83
2022/02/22 08:06:11;;;;;;;1.23;0.63;;;7.70;99.90;;;;;;5026438;28;20651;-83
2022/02/22 08:08:37;;;;;;;0.10;0.10;;;7.80;99.90;;;;;;5025201;28;20559;-83
2022/02/22 08:11:03;;;;;;;0.60;0.27;;;7.80;99.90;;;;;;5025764;28;20219;-83
2022/02/22 08:13:28;;;;;;;0.07;0.07;;;7.90;99.90;;;;;;5019901;28;21230;-83
2022/02/22 08:15:54;;;;;;;0.10;0.10;;;7.60;99.90;;;;;;5023250;28;20747;-83
2022/02/22 08:18:19;;;;;;;0.20;0.20;;;7.40;99.90;;;;;;5023557;28;20212;-83
2022/02/22 08:20:45;;;;;;;0.10;0.10;;;7.60;99.90;;;;;;5029811;28;20194;-83
2022/02/22 08:23:10;;;;;;;0.73;0.30;;;7.70;99.90;;;;;;5020290;28;20280;-85
2022/02/22 08:25:36;;;;;;;0.20;0.20;;;7.80;99.90;;;;;;5026967;28;20643;-81
2022/02/22 08:28:10;;;;;;;0.73;0.73;;;7.90;99.90;;;;;;5025940;28;20317;-82
2022/02/22 08:30:38;;;;;;;0.10;0.10;;;7.90;99.90;;;;;;5027656;28;20242;-81
2022/02/22 08:33:05;;;;;;;0.37;0.37;;;7.90;99.90;;;;;;5026952;28;20666;-81
2022/02/22 08:35:30;;;;;;;1.50;1.30;;;8.10;99.90;;;;;;5024965;28;21737;-81
2022/02/22 08:37:56;;;;;;;0.37;0.13;;;8.20;99.90;;;;;;5023947;28;20302;-81
2022/02/22 08:40:22;;;;;;;0.10;0.10;;;8.30;99.90;;;;;;5023693;28;20331;-81
2022/02/22 08:42:47;;;;;;;0.30;0.30;;;8.40;99.90;;;;;;5025964;28;20539;-81
2022/02/22 08:45:13;;;;;;;0.40;0.37;;;8.50;99.90;;;;;;5023058;28;20191;-81
2022/02/22 08:47:38;;;;;;;0.10;0.10;;;8.40;99.90;;;;;;5019648;28;20207;-83
2022/02/22 08:50:04;;;;;;;0.37;0.37;;;8.30;99.90;;;;;;5016436;28;20738;-82
2022/02/22 08:52:31;;;;;;;0.27;0.27;;;8.30;99.90;;;;;;5019211;28;20251;-82
2022/02/22 08:54:57;;;;;;;0.20;0.20;;;8.50;99.90;;;;;;5023226;28;20212;-82
2022/02/22 08:57:22;;;;;;;1.13;0.30;;;8.80;99.90;;;;;;5015104;28;20692;-82
2022/02/22 08:59:48;;;;;;;0.30;0.23;;;8.70;99.90;;;;;;5019626;28;20201;-83
2022/02/22 09:02:13;;;;;;;0.57;0.50;;;8.70;99.90;;;;;;5017515;28;20314;-82
2022/02/22 09:04:39;;;;;;;2.57;0.40;;;8.40;99.90;;;;;;5021431;28;20204;-83
2022/02/22 09:07:05;;;;;;;0.77;0.77;;;8.40;99.90;;;;;;5022249;28;20218;-82
2022/02/22 09:09:31;;;;;;;0.10;0.10;;;8.30;99.90;;;;;;5025606;28;20211;-83
2022/02/22 09:11:56;;;;;;;0.83;0.20;;;8.40;99.90;;;;;;5019149;28;20203;-83
2022/02/22 09:14:23;;;;;;;0.30;0.30;;;8.40;99.90;;;;;;5020575;28;20513;-81
2022/02/22 09:16:49;;;;;;;0.17;0.17;;;8.50;99.90;;;;;;5023676;28;20208;-82
2022/02/22 09:19:14;;;;;;;0.40;0.40;;;8.50;99.90;;;;;;5026407;28;20187;-82
2022/02/22 09:21:40;;;;;;;0.73;0.73;;;8.90;99.90;;;;;;5023263;28;20217;-83
2022/02/22 09:24:06;;;;;;;0.77;0.60;;;9.10;99.90;;;;;;5021173;28;20187;-83
2022/02/22 09:26:31;;;;;;;0.73;0.60;;;9.10;99.90;;;;;;5023606;28;20203;-82
2022/02/22 09:28:58;;;;;;;1.07;0.63;;;9.10;99.90;;;;;;5021415;28;20190;-82
2022/02/22 09:31:25;;;;;;;0.10;0.10;;;9.00;99.90;;;;;;5025431;28;20210;-82
2022/02/22 09:33:52;;;;;;;0.20;0.20;;;9.10;99.90;;;;;;5025915;28;20282;-82
2022/02/22 09:36:18;;;;;;;1.03;1.03;;;9.10;99.90;;;;;;5023359;28;20248;-81
2022/02/22 09:38:43;;;;;;;0.20;0.20;;;9.10;99.90;;;;;;5026335;28;20172;-82
2022/02/22 09:41:10;;;;;;;0.20;0.20;;;9.10;99.90;;;;;;5025054;28;20214;-82
2022/02/22 09:43:35;;;;;;;0.10;0.10;;;9.10;99.90;;;;;;5023764;28;20663;-82
2022/02/22 09:46:01;;;;;;;0.20;0.20;;;9.10;99.90;;;;;;5024325;28;20189;-82
2022/02/22 09:48:27;;;;;;;0.20;0.20;;;9.10;99.90;;;;;;5022519;28;20195;-82
2022/02/22 09:50:53;;;;;;;0.10;0.10;;;9.00;99.90;;;;;;5024929;28;20206;-82
2022/02/22 09:53:19;;;;;;;1.13;1.10;;;9.00;99.90;;;;;;5025437;28;20200;-82
2022/02/22 09:55:44;;;;;;;0.20;0.20;;;9.10;99.90;;;;;;5024310;28;20189;-82
2022/02/22 09:58:10;;;;;;;4.07;0.57;;;9.10;99.90;;;;;;5026326;28;20203;-82
2022/02/22 10:00:36;;;;;;;0.10;0.10;;;9.20;99.90;;;;;;5025584;28;20266;-82
2022/02/22 10:03:02;;;;;;;0.10;0.10;;;9.20;99.90;;;;;;5026055;28;20199;-82
2022/02/22 10:05:28;;;;;;;0.63;0.63;;;9.20;99.90;;;;;;5023151;28;20204;-82
2022/02/22 10:07:56;;;;;;;0.30;0.30;;;9.30;99.90;;;;;;5023335;28;20213;-82
2022/02/22 10:10:59;;;;;;;0.37;0.37;;;9.30;99.90;;;;;;5022872;28;20223;-82
2022/02/22 10:13:24;;;;;;;0.20;0.20;;;9.40;99.90;;;;;;5018290;28;20287;-82
2022/02/22 10:15:50;;;;;;;0.10;0.10;;;9.40;99.90;;;;;;5022133;28;20273;-82
2022/02/22 10:18:15;;;;;;;0.10;0.10;;;9.40;99.90;;;;;;5024215;28;20245;-82
2022/02/22 10:20:41;;;;;;;0.10;0.10;;;9.50;99.90;;;;;;5025663;28;20193;-82
2022/02/22 10:23:07;;;;;;;0.20;0.20;;;9.40;99.90;;;;;;5021913;28;20219;-82
2022/02/22 10:25:35;;;;;;;0.10;0.10;;;9.50;99.90;;;;;;5019656;28;20655;-82
2022/02/22 10:28:01;;;;;;;0.40;0.40;;;9.50;99.90;;;;;;5023824;28;20293;-82
2022/02/22 10:30:39;;;;;;;0.77;0.53;;;9.60;99.90;;;;;;5023999;28;20212;-82
2022/02/22 10:33:28;;;;;;;3.40;0.30;;;9.70;99.90;;;;;;5024188;28;20285;-82
2022/02/22 10:36:04;;;;;;;0.10;0.10;;;9.80;99.90;;;;;;5022824;28;20245;-82
2022/02/22 10:38:31;;;;;;;0.10;0.10;;;9.80;99.90;;;;;;5023640;28;20215;-82
2022/02/22 10:41:02;;;;;;;0.10;0.10;;;9.70;99.90;;;;;;5020939;28;20410;-82
2022/02/22 10:43:52;;;;;;;0.47;0.47;;;9.70;99.90;;;;;;5021489;28;20202;-82
2022/02/22 10:46:25;;;;;;;0.93;0.93;;;9.80;99.90;;;;;;5017734;28;20203;-82
2022/02/22 10:49:14;;;;;;;0.20;0.20;;;10.00;99.90;;;;;;5026266;28;20658;-82
2022/02/22 10:51:42;;;;;;;0.13;0.13;;;10.40;99.90;;;;;;5023868;28;20206;-81
2022/02/22 10:54:14;;;;;;;0.20;0.20;;;10.60;99.90;;;;;;5021249;28;20185;-82
2022/02/22 10:56:40;;;;;;;0.37;0.37;;;10.80;99.90;;;;;;5024718;28;20698;-82
2022/02/22 10:59:06;;;;;;;3.20;0.87;;;10.70;99.90;;;;;;5020476;28;20210;-82
2022/02/22 11:01:31;;;;;;;0.20;0.20;;;10.60;99.90;;;;;;5022018;28;20256;-82
2022/02/22 11:03:57;;;;;;;0.83;0.47;;;10.70;99.90;;;;;;5029448;28;20190;-82
2022/02/22 11:06:23;;;;;;;0.77;0.73;;;10.70;99.90;;;;;;5021739;28;20177;-82
2022/02/22 11:08:51;;;;;;;0.10;0.10;;;10.70;99.90;;;;;;5026870;28;20230;-82
2022/02/22 11:11:32;;;;;;;0.10;0.10;;;10.50;99.90;;;;;;5043868;28;20385;-82
2022/02/22 11:14:00;;;;;;;0.33;0.33;;;10.50;99.90;;;;;;5027651;28;20210;-82
2022/02/22 11:16:37;;;;;;;0.73;0.40;;;10.60;99.90;;;;;;5033610;28;20226;-82
2022/02/22 11:19:15;;;;;;;0.10;0.10;;;10.90;99.90;;;;;;5032358;28;20235;-82
2022/02/22 11:21:42;;;;;;;0.10;0.10;;;11.00;99.90;;;;;;5032851;28;20263;-82
2022/02/22 11:24:09;;;;;;;0.73;0.73;;;11.00;99.90;;;;;;5028832;28;20438;-82
2022/02/22 11:26:54;;;;;;;0.10;0.10;;;10.80;99.90;;;;;;5031132;28;20240;-82
2022/02/22 11:29:21;;;;;;;0.37;0.37;;;10.90;99.90;;;;;;5033025;28;20403;-82
2022/02/22 11:32:11;;;;;;;1.37;1.27;;;10.80;99.90;;;;;;5032173;28;20182;-82
2022/02/22 11:34:39;;;;;;;0.40;0.40;;;10.80;99.90;;;;;;5023123;28;20576;-82
2022/02/22 11:37:07;;;;;;;0.10;0.10;;;10.90;99.90;;;;;;5029175;28;20209;-82
2022/02/22 11:39:52;;;;;;;0.20;0.20;;;11.00;99.90;;;;;;5032307;28;20309;-82
2022/02/22 11:42:21;;;;;;;0.13;0.13;;;10.90;99.90;;;;;;5030834;28;20186;-82
2022/02/22 11:45:03;;;;;;;0.10;0.10;;;10.70;99.90;;;;;;5027332;28;20189;-82
2022/02/22 11:47:30;;;;;;;0.40;0.30;;;10.60;99.90;;;;;;5030212;28;21152;-82
2022/02/22 11:49:57;;;;;;;7.53;0.33;;;10.70;99.90;;;;;;5029027;28;20705;-82
2022/02/22 11:52:41;;;;;;;0.20;0.20;;;10.70;99.90;;;;;;5031284;28;20193;-82
2022/02/22 11:55:09;;;;;;;0.20;0.20;;;10.60;99.90;;;;;;5029689;28;20185;-82
2022/02/22 11:58:09;;;;;;;0.13;0.13;;;10.60;99.90;;;;;;5029152;28;20204;-82
2022/02/22 12:00:37;;;;;;;0.10;0.10;;;10.60;99.90;;;;;;5030872;28;20261;-82
2022/02/22 12:03:11;;;;;;;1.17;0.97;;;10.50;99.90;;;;;;5034027;28;20627;-83
2022/02/22 12:05:40;;;;;;;0.23;0.23;;;10.50;99.90;;;;;;5025801;28;20264;-81
2022/02/22 12:08:28;;;;;;;0.13;0.13;;;10.60;99.90;;;;;;5028364;28;20220;-81
2022/02/22 12:10:57;;;;;;;0.40;0.27;;;10.60;99.90;;;;;;5026491;28;20194;-82
2022/02/22 12:13:44;;;;;;;0.20;0.20;;;10.50;99.90;;;;;;5027769;28;20269;-82
2022/02/22 12:16:18;;;;;;;0.10;0.10;;;10.50;99.90;;;;;;5027516;28;20741;-81
2022/02/22 12:18:46;;;;;;;1.17;1.17;;;10.50;99.90;;;;;;5026518;28;20235;-81
2022/02/22 12:21:13;;;;;;;0.30;0.30;;;10.50;99.90;;;;;;5027290;28;20186;-81
2022/02/22 12:23:40;;;;;;;0.50;0.50;;;10.50;99.90;;;;;;5029179;28;20183;-82
2022/02/22 12:26:08;;;;;;;0.30;0.30;;;10.50;99.90;;;;;;5029742;28;20264;-81
2022/02/22 12:28:49;;;;;;;0.47;0.47;;;10.30;99.90;;;;;;5027108;28;20228;-82
2022/02/22 12:31:42;;;;;;;0.30;0.30;;;10.40;99.90;;;;;;5027915;28;20256;-82
2022/02/22 12:34:15;;;;;;;0.10;0.10;;;10.40;99.90;;;;;;5030241;28;20181;-81
2022/02/22 12:36:42;;;;;;;0.43;0.40;;;10.40;99.90;;;;;;5030393;28;20209;-82
2022/02/22 12:39:14;;;;;;;0.10;0.10;;;10.40;99.90;;;;;;5026367;28;20189;-81
2022/02/22 12:41:46;;;;;;;0.20;0.20;;;10.40;99.90;;;;;;5043824;28;20269;-82
2022/02/22 12:44:18;;;;;;;0.33;0.33;;;10.50;99.90;;;;;;5022142;28;20651;-87
2022/02/22 12:46:46;;;;;;;0.30;0.30;;;10.50;99.90;;;;;;5018945;28;20316;-87
2022/02/22 12:49:13;;;;;;;0.23;0.23;;;10.40;99.90;;;;;;5035967;28;20190;-85
2022/02/22 12:51:41;;;;;;;0.87;0.30;;;10.30;99.90;;;;;;5042996;28;20286;-85
2022/02/22 12:54:07;;;;;;;0.20;0.20;;;10.30;99.90;;;;;;5063707;28;20192;-85
2022/02/22 12:56:39;;;;;;;0.40;0.40;;;10.30;99.90;;;;;;5043236;28;20198;-85